Terminal Aerodrome Forecast
Issued by NWS Lake Charles, LA

Home | Current Version | Previous Version | Text Only | Print | Product List | Glossary On
Versions: 1 2 3 4 5 6 7 8 9 10 11 12 13 14 15 16
000
FTUS44 KLCH 281700
TAFARA
TAF
KARA 281733Z 2818/0118 09011KT P6SM SCT100
     FM282300 09007KT P6SM SCT050 OVC100
     FM010700 08008KT P6SM SCT015 OVC025
     FM011000 08007KT 4SM BR SCT007 OVC015
      TEMPO 0110/0114 2SM BR OVC007
     FM011400 11008KT 5SM BR OVC007=

USA.gov is the U.S. government's official web portal to all federal, state and local government web resources and services.